^^
Station Historical Data
Daily Summary for May 29, 2017 Units:  English    Metric   Both
« Previous Day
Next Day »
Daily Weekly Monthly Yearly Custom
  High: Low: Average:
Temperature: 60.8 °F 55.9 °F 58 °F
Dew Point: 57.2 °F 54.0 °F 55.6 °F
Humidity: 95 % 87 % 92 %
Wind Speed: 0.9 mph 0.0 mph 0 mph
Wind Gust: 6.9 mph - -
Wind:- - SE
Pressure: 30.10 in 29.83 in -
Precipitation: 0.42 in    
Historical Graphs
 
 
Tabular Data for May 29, 2017
Time Temperature Dew Point Pressure Wind Wind Speed Wind Gust Humidity Rainfall Rate (Hourly) solar Conditions
00:03 58.6 °F 55.7 °F 29.88 in Calm     90 % 0.00 in 0.0 W/m2 RA
00:08 58.4 °F 55.2 °F 29.88 in Calm     89 % 0.01 in 0.0 W/m2 RA
00:13 58.3 °F 55.1 °F 29.88 in Calm   1.2 mph 89 % 0.01 in 0.0 W/m2 RA
00:18 58.1 °F 55.2 °F 29.88 in Calm   1.2 mph 90 % 0.01 in 0.0 W/m2 OVC
00:23 57.9 °F 54.7 °F 29.88 in Calm   1.2 mph 89 % 0.01 in 0.0 W/m2 OVC
00:29 58.0 °F 55.1 °F 29.88 in Calm   1.2 mph 90 % 0.01 in 0.0 W/m2 OVC
00:34 58.1 °F 55.2 °F 29.87 in Calm   1.2 mph 90 % 0.01 in 0.0 W/m2 OVC
00:39 58.1 °F 54.9 °F 29.87 in Calm   1.2 mph 89 % 0.01 in 0.0 W/m2 OVC
00:44 58.0 °F 55.1 °F 29.87 in Calm     90 % 0.01 in 0.0 W/m2 OVC
00:49 57.8 °F 54.9 °F 29.87 in Calm   1.2 mph 90 % 0.01 in 0.0 W/m2 OVC
00:54 57.7 °F 54.8 °F 29.87 in Calm   3.5 mph 90 % 0.01 in 0.0 W/m2 OVC
00:59 57.6 °F 54.7 °F 29.87 in Calm   3.5 mph 90 % 0.01 in 0.0 W/m2 OVC
01:04 57.6 °F 54.7 °F 29.87 in Calm   1.2 mph 90 % 0.01 in 0.0 W/m2 -RA
01:09 57.5 °F 54.6 °F 29.87 in Calm   1.2 mph 90 % 0.00 in 0.0 W/m2 -RA
01:14 57.4 °F 54.5 °F 29.87 in Calm   1.2 mph 90 % 0.00 in 0.0 W/m2 -RA
01:19 57.5 °F 54.6 °F 29.86 in Calm   1.2 mph 90 % 0.00 in 0.0 W/m2 -RA
01:24 57.5 °F 54.6 °F 29.86 in Calm   1.2 mph 90 % 0.00 in 0.0 W/m2 -RA
01:29 57.5 °F 54.9 °F 29.86 in Calm   1.2 mph 91 % 0.00 in 0.0 W/m2 -RA
01:34 57.4 °F 54.5 °F 29.86 in Calm   1.2 mph 90 % 0.00 in 0.0 W/m2 -RA
01:39 57.4 °F 54.8 °F 29.86 in Calm   1.2 mph 91 % 0.00 in 0.0 W/m2 -RA
01:44 57.3 °F 54.7 °F 29.86 in Calm   1.2 mph 91 % 0.00 in 0.0 W/m2 -RA
01:49 57.2 °F 54.3 °F 29.86 in Calm   1.2 mph 90 % 0.00 in 0.0 W/m2 -RA
01:54 57.2 °F 54.6 °F 29.86 in Calm   1.2 mph 91 % 0.00 in 0.0 W/m2 -RA
01:59 57.3 °F 54.7 °F 29.86 in Calm   2.3 mph 91 % 0.00 in 0.0 W/m2 -RA
02:04 57.2 °F 54.6 °F 29.86 in Calm   2.3 mph 91 % 0.00 in 0.0 W/m2 OVC
02:09 57.2 °F 54.6 °F 29.85 in Calm   3.5 mph 91 % 0.00 in 0.0 W/m2 OVC
02:14 57.2 °F 54.6 °F 29.85 in Calm   3.5 mph 91 % 0.00 in 0.0 W/m2 OVC
02:19 57.2 °F 54.6 °F 29.85 in Calm   2.3 mph 91 % 0.00 in 0.0 W/m2 OVC
02:24 57.3 °F 54.7 °F 29.85 in Calm   2.3 mph 91 % 0.00 in 0.0 W/m2 OVC
02:29 57.1 °F 54.5 °F 29.84 in Calm   1.2 mph 91 % 0.00 in 0.0 W/m2 OVC
02:34 57.2 °F 54.6 °F 29.84 in Calm   1.2 mph 91 % 0.00 in 0.0 W/m2 OVC
02:39 57.0 °F 54.4 °F 29.84 in Calm   3.5 mph 91 % 0.00 in 0.0 W/m2 OVC
02:44 57.0 °F 54.4 °F 29.84 in Calm   3.5 mph 91 % 0.00 in 0.0 W/m2 OVC
02:49 57.0 °F 54.4 °F 29.84 in Calm   1.2 mph 91 % 0.00 in 0.0 W/m2 OVC
02:54 57.1 °F 54.5 °F 29.83 in Calm   3.5 mph 91 % 0.00 in 0.0 W/m2 OVC
02:59 57.1 °F 54.8 °F 29.83 in Calm   3.5 mph 92 % 0.00 in 0.0 W/m2 OVC
03:04 56.9 °F 54.3 °F 29.83 in Calm   2.3 mph 91 % 0.00 in 0.0 W/m2 -RA
03:09 56.9 °F 54.6 °F 29.83 in Calm   2.3 mph 92 % 0.00 in 0.0 W/m2 -RA
03:14 57.0 °F 54.7 °F 29.83 in Calm   3.5 mph 92 % 0.00 in 0.0 W/m2 -RA
03:19 56.9 °F 54.6 °F 29.83 in Calm   3.5 mph 92 % 0.00 in 0.0 W/m2 -RA
03:20 56.9 °F 54.6 °F 29.83 in Calm   3.5 mph 92 % 0.00 in 0.0 W/m2 -RA
03:25 56.8 °F 54.5 °F 29.84 in Calm     92 % 0.00 in 0.0 W/m2 -RA
03:30 56.9 °F 54.6 °F 29.84 in Calm     92 % 0.00 in 0.0 W/m2 -RA
03:35 56.9 °F 54.6 °F 29.84 in Calm     92 % 0.00 in 0.0 W/m2 -RA
03:40 56.8 °F 54.5 °F 29.84 in Calm     92 % 0.00 in 0.0 W/m2 -RA
03:42 56.8 °F 54.5 °F 29.84 in NNE 0.2 mph   92 % 0.00 in 0.0 W/m2 -RA
03:47 56.8 °F 54.5 °F 29.83 in Calm   2.3 mph 92 % 0.00 in 0.0 W/m2 -RA
03:52 56.8 °F 54.5 °F 29.83 in Calm   2.3 mph 92 % 0.00 in 0.0 W/m2 -RA
03:57 56.7 °F 54.4 °F 29.83 in Calm   1.2 mph 92 % 0.00 in 0.0 W/m2 -RA
04:00 56.7 °F 54.4 °F 29.83 in East 0.1 mph 1.2 mph 92 % 0.00 in 0.0 W/m2 -RA
04:05 56.7 °F 54.4 °F 29.83 in Calm   1.2 mph 92 % 0.01 in 0.0 W/m2 RA
04:10 56.7 °F 54.4 °F 29.83 in Calm   3.5 mph 92 % 0.01 in 0.0 W/m2 RA
04:15 56.7 °F 54.4 °F 29.83 in Calm   3.5 mph 92 % 0.01 in 0.0 W/m2 OVC
04:20 56.6 °F 54.3 °F 29.83 in ENE 0.1 mph 1.2 mph 92 % 0.01 in 0.0 W/m2 OVC
04:25 56.6 °F 54.3 °F 29.83 in Calm   1.2 mph 92 % 0.01 in 0.0 W/m2 OVC
04:35 56.6 °F 54.6 °F 29.83 in Calm   1.2 mph 93 % 0.01 in 0.0 W/m2 OVC
04:40 56.6 °F 54.6 °F 29.83 in Calm   1.2 mph 93 % 0.01 in 0.0 W/m2 OVC
04:41 56.6 °F 54.6 °F 29.83 in Calm   1.2 mph 93 % 0.01 in 0.0 W/m2 OVC
04:46 56.6 °F 54.6 °F 29.83 in Calm   2.3 mph 93 % 0.01 in 0.0 W/m2 OVC
04:51 56.5 °F 54.5 °F 29.83 in Calm   3.5 mph 93 % 0.01 in 0.0 W/m2 OVC
04:56 56.5 °F 54.5 °F 29.83 in East 0.3 mph 3.5 mph 93 % 0.01 in 0.0 W/m2 OVC
05:01 56.5 °F 54.5 °F 29.83 in ESE 0.1 mph 2.3 mph 93 % 0.01 in 0.0 W/m2 OVC
05:06 56.4 °F 54.4 °F 29.83 in Calm   3.5 mph 93 % 0.00 in 0.0 W/m2 OVC
05:11 56.3 °F 54.3 °F 29.84 in Calm   3.5 mph 93 % 0.00 in 0.0 W/m2 OVC
05:16 56.4 °F 54.4 °F 29.83 in East 0.6 mph 3.5 mph 93 % 0.00 in 0.0 W/m2 OVC
05:21 56.3 °F 54.3 °F 29.83 in Calm   3.5 mph 93 % 0.00 in 0.0 W/m2 -RA
05:26 56.3 °F 54.3 °F 29.84 in Calm   3.5 mph 93 % 0.00 in 0.0 W/m2 -RA
05:31 56.3 °F 54.3 °F 29.83 in Calm   1.2 mph 93 % 0.00 in 0.0 W/m2 -RA
05:36 56.2 °F 54.2 °F 29.83 in Calm     93 % 0.00 in 0.0 W/m2 -RA
05:41 56.2 °F 54.2 °F 29.84 in Calm     93 % 0.00 in 0.0 W/m2 -RA
05:46 56.2 °F 54.2 °F 29.84 in Calm     93 % 0.00 in 0.0 W/m2 -RA
05:51 56.1 °F 54.1 °F 29.84 in Calm     93 % 0.00 in 0.0 W/m2 -RA
05:56 56.1 °F 54.1 °F 29.84 in Calm     93 % 0.00 in 0.0 W/m2 -RA
06:01 56.1 °F 54.1 °F 29.84 in NE 0.1 mph 1.2 mph 93 % 0.00 in 0.0 W/m2 OVC
06:06 56.1 °F 54.1 °F 29.84 in Calm   1.2 mph 93 % 0.00 in 0.0 W/m2 OVC
06:11 56.0 °F 54.0 °F 29.84 in Calm   1.2 mph 93 % 0.00 in 7.0 W/m2 OVC
06:16 56.0 °F 54.3 °F 29.85 in Calm   1.2 mph 94 % 0.00 in 5.0 W/m2 OVC
06:21 56.0 °F 54.0 °F 29.85 in Calm   2.3 mph 93 % 0.00 in 0.0 W/m2 OVC
06:26 56.0 °F 54.3 °F 29.85 in Calm   2.3 mph 94 % 0.00 in 0.0 W/m2 OVC
06:31 55.9 °F 54.2 °F 29.85 in Calm   2.3 mph 94 % 0.03 in 0.0 W/m2 RA
06:36 56.0 °F 54.3 °F 29.85 in Calm   1.2 mph 94 % 0.03 in 5.0 W/m2 RA
06:41 56.0 °F 54.3 °F 29.85 in Calm   1.2 mph 94 % 0.03 in 7.0 W/m2 OVC
06:45 56.0 °F 54.3 °F 29.85 in Calm   1.2 mph 94 % 0.03 in 9.0 W/m2 OVC
06:50 56.0 °F 54.3 °F 29.85 in Calm   1.2 mph 94 % 0.04 in 7.0 W/m2 RA
06:55 56.1 °F 54.4 °F 29.86 in Calm     94 % 0.04 in 9.0 W/m2 RA
07:00 56.0 °F 54.3 °F 29.86 in Calm     94 % 0.04 in 19.0 W/m2 OVC
07:05 56.2 °F 54.5 °F 29.88 in Calm     94 % 0.05 in 26.0 W/m2 -RA
07:10 56.2 °F 54.5 °F 29.89 in WNW 0.2 mph 3.5 mph 94 % 0.07 in 12.0 W/m2 -RA
07:15 56.1 °F 54.4 °F 29.88 in Calm   3.5 mph 94 % 0.09 in 11.0 W/m2 -RA
07:16 56.1 °F 54.4 °F 29.88 in Calm   3.5 mph 94 % 0.10 in 12.0 W/m2 -RA
07:21 56.3 °F 54.6 °F 29.88 in Calm   2.3 mph 94 % 0.17 in 11.0 W/m2 -RA
07:23 56.2 °F 54.5 °F 29.89 in Calm     94 % 0.18 in 9.0 W/m2 -RA
07:28 56.1 °F 54.4 °F 29.89 in Calm     94 % 0.16 in 9.0 W/m2 -RA
07:33 56.0 °F 54.3 °F 29.87 in Calm   1.2 mph 94 % 0.17 in 26.0 W/m2 -RA
07:38 56.1 °F 54.4 °F 29.88 in Calm   1.2 mph 94 % 0.18 in 23.0 W/m2 -RA
07:43 56.0 °F 54.3 °F 29.88 in Calm   1.2 mph 94 % 0.18 in 28.0 W/m2 -RA
07:48 56.1 °F 54.4 °F 29.88 in Calm   1.2 mph 94 % 0.17 in 26.0 W/m2 -RA
07:53 56.2 °F 54.5 °F 29.88 in Calm     94 % 0.17 in 25.0 W/m2 -RA
07:58 56.1 °F 54.4 °F 29.88 in Calm     94 % 0.18 in 42.0 W/m2 -RA
08:03 56.2 °F 54.5 °F 29.88 in Calm     94 % 0.17 in 35.0 W/m2 RA
08:08 56.3 °F 54.6 °F 29.89 in Calm     94 % 0.16 in 47.0 W/m2 OVC
08:13 56.4 °F 55.0 °F 29.88 in NE 0.1 mph   95 % 0.14 in 98.0 W/m2 OVC
08:18 56.3 °F 54.9 °F 29.88 in Calm   3.5 mph 95 % 0.09 in 132.0 W/m2 OVC
08:23 56.4 °F 55.0 °F 29.88 in Calm   3.5 mph 95 % 0.04 in 109.0 W/m2 -RA
08:28 56.5 °F 55.1 °F 29.88 in Calm   3.5 mph 95 % 0.03 in 95.0 W/m2 -RA
08:33 56.6 °F 55.2 °F 29.88 in Calm   1.2 mph 95 % 0.02 in 51.0 W/m2 -RA
08:39 56.5 °F 55.1 °F 29.88 in Calm     95 % 0.01 in 67.0 W/m2 -RA
08:44 56.4 °F 55.0 °F 29.89 in Calm     95 % 0.01 in 49.0 W/m2 -RA
08:49 56.4 °F 55.0 °F 29.89 in Calm   1.2 mph 95 % 0.01 in 65.0 W/m2 -RA
08:54 56.3 °F 54.9 °F 29.89 in Calm   1.2 mph 95 % 0.02 in 91.0 W/m2 -RA
08:59 56.6 °F 55.2 °F 29.89 in Calm     95 % 0.01 in 114.0 W/m2 -RA
09:04 56.7 °F 55.3 °F 29.89 in Calm     95 % 0.01 in 28.0 W/m2 OVC
09:09 56.6 °F 55.2 °F 29.90 in Calm   1.2 mph 95 % 0.01 in 26.0 W/m2 OVC
09:14 56.4 °F 55.0 °F 29.91 in Calm   1.2 mph 95 % 0.09 in 23.0 W/m2 RA
09:19 56.2 °F 54.8 °F 29.92 in NNW 0.9 mph 3.5 mph 95 % 0.16 in 37.0 W/m2 RA
09:24 56.3 °F 54.9 °F 29.90 in Calm   3.5 mph 95 % 0.17 in 105.0 W/m2 -RA
09:29 56.5 °F 55.1 °F 29.89 in Calm   3.5 mph 95 % 0.18 in 200.0 W/m2 -RA
09:34 57.0 °F 55.6 °F 29.89 in Calm     95 % 0.18 in 221.0 W/m2 -RA
09:39 57.3 °F 55.9 °F 29.88 in SE 0.2 mph 1.2 mph 95 % 0.18 in 487.0 W/m2 -RA
09:44 57.6 °F 56.2 °F 29.88 in Calm   3.5 mph 95 % 0.18 in 288.0 W/m2 -RA
09:49 57.8 °F 56.4 °F 29.89 in NNE 0.6 mph 3.5 mph 95 % 0.18 in 367.0 W/m2 -RA
09:54 57.7 °F 56.3 °F 29.89 in Calm   3.5 mph 95 % 0.17 in 346.0 W/m2 -RA
09:59 57.8 °F 56.4 °F 29.90 in Calm   3.5 mph 95 % 0.17 in 262.0 W/m2 -RA
10:04 58.0 °F 56.6 °F 29.90 in NNE 0.4 mph 2.3 mph 95 % 0.17 in 258.0 W/m2 -RA
10:09 57.8 °F 56.1 °F 29.91 in Calm   2.3 mph 94 % 0.17 in 218.0 W/m2 -RA
10:14 57.7 °F 56.0 °F 29.91 in Calm   2.3 mph 94 % 0.08 in 236.0 W/m2 -RA
10:19 58.2 °F 56.5 °F 29.92 in Calm   1.2 mph 94 % 0.02 in 163.0 W/m2 -RA
10:21 58.1 °F 56.4 °F 29.92 in SSW 0.4 mph 2.3 mph 94 % 0.01 in 160.0 W/m2 BKN
10:26 57.8 °F 55.8 °F 29.92 in Calm   3.5 mph 93 % 0.00 in 153.0 W/m2 BKN
10:31 57.7 °F 55.7 °F 29.92 in Calm   3.5 mph 93 % 0.00 in 172.0 W/m2 BKN
10:36 57.9 °F 55.9 °F 29.92 in Calm   1.2 mph 93 % 0.00 in 139.0 W/m2 BKN
10:41 57.9 °F 55.9 °F 29.92 in Calm   2.3 mph 93 % 0.00 in 130.0 W/m2 BKN
10:46 57.8 °F 55.5 °F 29.92 in Calm   2.3 mph 92 % 0.00 in 141.0 W/m2 BKN
10:51 58.2 °F 56.2 °F 29.92 in Calm   2.3 mph 93 % 0.00 in 121.0 W/m2 BKN
11:01 57.9 °F 55.6 °F 29.93 in Calm   1.2 mph 92 % 0.00 in 146.0 W/m2 BKN
11:06 58.2 °F 55.9 °F 29.93 in Calm   1.2 mph 92 % 0.00 in 146.0 W/m2 BKN
11:11 58.1 °F 55.5 °F 29.93 in Calm     91 % 0.00 in 139.0 W/m2 BKN
11:16 58.0 °F 55.7 °F 29.93 in Calm     92 % 0.00 in 211.0 W/m2 BKN
11:21 57.9 °F 55.3 °F 29.92 in Calm   1.2 mph 91 % 0.00 in 251.0 W/m2 OVC
11:26 58.2 °F 55.9 °F 29.92 in Calm   1.2 mph 92 % 0.00 in 169.0 W/m2 OVC
11:31 58.5 °F 56.2 °F 29.93 in Calm   1.2 mph 92 % 0.00 in 153.0 W/m2 OVC
11:36 58.2 °F 55.6 °F 29.93 in Calm   3.5 mph 91 % 0.00 in 135.0 W/m2 OVC
11:41 58.2 °F 55.6 °F 29.93 in Calm   6.9 mph 91 % 0.00 in 134.0 W/m2 OVC
11:46 58.1 °F 55.5 °F 29.93 in Calm   6.9 mph 91 % 0.00 in 174.0 W/m2 OVC
11:51 58.1 °F 55.5 °F 29.93 in Calm   1.2 mph 91 % 0.00 in 171.0 W/m2 OVC
11:56 58.5 °F 55.9 °F 29.94 in Calm   1.2 mph 91 % 0.00 in 193.0 W/m2 OVC
12:01 58.6 °F 55.7 °F 29.93 in East 0.9 mph 3.5 mph 90 % 0.00 in 181.0 W/m2 OVC
12:07 58.4 °F 55.5 °F 29.94 in Calm   3.5 mph 90 % 0.00 in 190.0 W/m2 OVC
12:12 58.7 °F 55.8 °F 29.94 in Calm   3.5 mph 90 % 0.00 in 181.0 W/m2 OVC
12:17 58.6 °F 55.7 °F 29.94 in Calm   3.5 mph 90 % 0.00 in 135.0 W/m2 OVC
12:22 58.6 °F 55.7 °F 29.94 in SSW 0.1 mph 3.5 mph 90 % 0.00 in 193.0 W/m2 OVC
12:27 58.6 °F 55.7 °F 29.94 in SSW 0.6 mph 3.5 mph 90 % 0.00 in 178.0 W/m2 OVC
12:32 58.7 °F 55.8 °F 29.95 in Calm   3.5 mph 90 % 0.00 in 158.0 W/m2 OVC
12:37 58.7 °F 55.8 °F 29.95 in Calm   3.5 mph 90 % 0.00 in 128.0 W/m2 OVC
12:42 58.4 °F 55.5 °F 29.95 in Calm     90 % 0.00 in 111.0 W/m2 OVC
12:47 58.3 °F 55.4 °F 29.95 in Calm   1.2 mph 90 % 0.00 in 88.0 W/m2 OVC
12:52 58.5 °F 55.6 °F 29.96 in Calm   1.2 mph 90 % 0.00 in 109.0 W/m2 OVC
12:57 58.5 °F 55.6 °F 29.96 in Calm   1.2 mph 90 % 0.00 in 118.0 W/m2 OVC
13:02 58.3 °F 55.4 °F 29.97 in Calm   1.2 mph 90 % 0.00 in 90.0 W/m2 OVC
13:07 58.5 °F 55.6 °F 29.97 in Calm   1.2 mph 90 % 0.00 in 111.0 W/m2 OVC
13:08 58.6 °F 55.7 °F 29.97 in Calm   1.2 mph 90 % 0.00 in 111.0 W/m2 OVC
13:13 58.5 °F 55.6 °F 29.97 in Calm     90 % 0.00 in 130.0 W/m2 OVC
13:18 58.9 °F 56.3 °F 29.97 in Calm     91 % 0.00 in 167.0 W/m2 OVC
13:23 58.9 °F 56.0 °F 29.96 in Calm     90 % 0.00 in 301.0 W/m2 OVC
13:28 58.9 °F 56.3 °F 29.96 in Calm   1.2 mph 91 % 0.00 in 323.0 W/m2 OVC
13:33 59.1 °F 56.5 °F 29.97 in Calm   1.2 mph 91 % 0.00 in 287.0 W/m2 OVC
13:38 59.2 °F 56.6 °F 29.96 in Calm   1.2 mph 91 % 0.00 in 374.0 W/m2 OVC
13:43 59.1 °F 56.5 °F 29.97 in SE 0.1 mph 1.2 mph 91 % 0.00 in 237.0 W/m2 OVC
13:48 59.0 °F 56.4 °F 29.97 in Calm   1.2 mph 91 % 0.00 in 195.0 W/m2 OVC
13:53 59.2 °F 56.6 °F 29.97 in Calm   1.2 mph 91 % 0.00 in 185.0 W/m2 -RA
13:58 59.1 °F 56.5 °F 29.97 in Calm   1.2 mph 91 % 0.00 in 204.0 W/m2 -RA
14:03 59.3 °F 56.7 °F 29.97 in Calm   1.2 mph 91 % 0.00 in 221.0 W/m2 OVC
14:08 59.4 °F 56.5 °F 29.97 in Calm   1.2 mph 90 % 0.00 in 167.0 W/m2 OVC
14:13 59.6 °F 56.7 °F 29.97 in Calm     90 % 0.00 in 171.0 W/m2 OVC
14:19 59.4 °F 56.5 °F 29.97 in Calm   1.2 mph 90 % 0.00 in 179.0 W/m2 OVC
14:24 59.6 °F 56.7 °F 29.97 in Calm   1.2 mph 90 % 0.00 in 186.0 W/m2 OVC
14:29 59.7 °F 56.8 °F 29.97 in SE 0.1 mph 1.2 mph 90 % 0.00 in 192.0 W/m2 OVC
14:30 59.7 °F 56.5 °F 29.97 in Calm   1.2 mph 89 % 0.00 in 192.0 W/m2 OVC
14:35 59.8 °F 56.6 °F 29.97 in ESE 0.5 mph 3.5 mph 89 % 0.00 in 156.0 W/m2 OVC
14:37 59.7 °F 56.5 °F 29.97 in Calm   3.5 mph 89 % 0.00 in 151.0 W/m2 OVC
14:42 59.8 °F 56.6 °F 29.97 in ESE 0.2 mph 3.5 mph 89 % 0.00 in 169.0 W/m2 OVC
14:47 59.6 °F 56.4 °F 29.97 in East 0.1 mph 2.3 mph 89 % 0.00 in 192.0 W/m2 OVC
14:52 59.7 °F 56.5 °F 29.97 in Calm   2.3 mph 89 % 0.00 in 200.0 W/m2 OVC
14:57 59.9 °F 56.6 °F 29.97 in Calm   1.2 mph 89 % 0.00 in 200.0 W/m2 OVC
15:02 60.1 °F 56.8 °F 29.97 in ESE 0.3 mph 2.3 mph 89 % 0.00 in 163.0 W/m2 OVC
15:07 59.9 °F 56.3 °F 29.97 in Calm   2.3 mph 88 % 0.00 in 183.0 W/m2 OVC
15:12 60.2 °F 56.9 °F 29.97 in Calm   4.6 mph 89 % 0.00 in 234.0 W/m2 OVC
15:17 60.2 °F 56.6 °F 29.97 in Calm   4.6 mph 88 % 0.00 in 179.0 W/m2 OVC
15:22 60.5 °F 56.9 °F 29.98 in Calm   3.5 mph 88 % 0.00 in 149.0 W/m2 OVC
15:27 60.6 °F 57.0 °F 29.98 in Calm   4.6 mph 88 % 0.00 in 135.0 W/m2 OVC
15:32 60.4 °F 56.8 °F 29.98 in Calm   4.6 mph 88 % 0.00 in 195.0 W/m2 OVC
15:37 60.6 °F 57.0 °F 29.98 in Calm   1.2 mph 88 % 0.00 in 192.0 W/m2 OVC
15:42 60.8 °F 57.2 °F 29.98 in Calm   1.2 mph 88 % 0.00 in 132.0 W/m2 OVC
15:47 60.8 °F 56.9 °F 29.98 in Calm   1.2 mph 87 % 0.00 in 144.0 W/m2 OVC
15:52 60.6 °F 56.7 °F 29.98 in Calm   1.2 mph 87 % 0.00 in 111.0 W/m2 OVC
15:57 60.6 °F 57.0 °F 29.99 in Calm   1.2 mph 88 % 0.00 in 91.0 W/m2 OVC
16:02 60.5 °F 56.6 °F 29.98 in Calm   1.2 mph 87 % 0.00 in 139.0 W/m2 OVC
16:07 60.5 °F 56.9 °F 29.99 in Calm   1.2 mph 88 % 0.00 in 70.0 W/m2 OVC
16:12 60.5 °F 56.9 °F 29.99 in Calm   1.2 mph 88 % 0.00 in 105.0 W/m2 OVC
16:17 60.5 °F 56.9 °F 30.00 in Calm   2.3 mph 88 % 0.00 in 79.0 W/m2 OVC
16:22 60.3 °F 56.7 °F 30.00 in ESE 0.6 mph 3.5 mph 88 % 0.00 in 60.0 W/m2 OVC
16:27 60.3 °F 56.7 °F 30.00 in Calm   3.5 mph 88 % 0.00 in 74.0 W/m2 OVC
16:32 60.2 °F 56.6 °F 30.00 in South 0.1 mph 3.5 mph 88 % 0.00 in 76.0 W/m2 OVC
16:37 60.3 °F 56.7 °F 30.00 in South 0.2 mph 3.5 mph 88 % 0.00 in 70.0 W/m2 OVC
16:42 60.3 °F 56.7 °F 30.00 in Calm   4.6 mph 88 % 0.00 in 62.0 W/m2 OVC
16:47 60.3 °F 56.7 °F 30.00 in Calm   4.6 mph 88 % 0.00 in 91.0 W/m2 OVC
16:53 60.4 °F 56.8 °F 30.00 in Calm   1.2 mph 88 % 0.00 in 141.0 W/m2 OVC
16:58 60.5 °F 56.9 °F 30.00 in Calm   1.2 mph 88 % 0.00 in 72.0 W/m2 OVC
17:03 60.3 °F 56.7 °F 30.00 in South 0.1 mph 3.5 mph 88 % 0.00 in 81.0 W/m2 OVC
17:08 60.3 °F 56.7 °F 30.00 in South 0.1 mph 3.5 mph 88 % 0.00 in 67.0 W/m2 OVC
17:13 60.3 °F 56.7 °F 30.00 in Calm   3.5 mph 88 % 0.00 in 63.0 W/m2 OVC
17:18 60.4 °F 56.8 °F 30.00 in Calm   1.2 mph 88 % 0.00 in 49.0 W/m2 OVC
17:23 60.3 °F 56.7 °F 30.00 in Calm   1.2 mph 88 % 0.00 in 77.0 W/m2 OVC
17:28 60.3 °F 56.7 °F 30.00 in ENE 0.1 mph 1.2 mph 88 % 0.00 in 65.0 W/m2 OVC
17:33 60.4 °F 56.8 °F 30.00 in Calm   1.2 mph 88 % 0.00 in 54.0 W/m2 OVC
17:38 60.3 °F 57.0 °F 30.01 in Calm   1.2 mph 89 % 0.00 in 46.0 W/m2 OVC
17:43 60.4 °F 57.1 °F 30.00 in Calm   1.2 mph 89 % 0.00 in 51.0 W/m2 OVC
17:48 60.4 °F 57.1 °F 30.00 in Calm     89 % 0.00 in 76.0 W/m2 OVC
17:53 60.4 °F 56.8 °F 30.01 in Calm     88 % 0.00 in 70.0 W/m2 OVC
17:58 60.5 °F 57.2 °F 30.01 in Calm     89 % 0.00 in 60.0 W/m2 OVC
18:03 60.3 °F 56.7 °F 30.01 in Calm     88 % 0.00 in 39.0 W/m2 OVC
18:08 60.4 °F 57.1 °F 30.01 in Calm     89 % 0.00 in 63.0 W/m2 OVC
18:13 60.2 °F 56.9 °F 30.01 in Calm     89 % 0.00 in 63.0 W/m2 OVC
18:18 60.2 °F 56.9 °F 30.01 in Calm   2.3 mph 89 % 0.00 in 40.0 W/m2 OVC
18:23 60.1 °F 56.8 °F 30.01 in Calm   2.3 mph 89 % 0.00 in 60.0 W/m2 OVC
18:28 59.9 °F 56.6 °F 30.01 in Calm   2.3 mph 89 % 0.00 in 33.0 W/m2 OVC
18:33 59.8 °F 56.6 °F 30.01 in Calm   1.2 mph 89 % 0.00 in 33.0 W/m2 OVC
18:38 59.9 °F 56.6 °F 30.01 in Calm   2.3 mph 89 % 0.00 in 53.0 W/m2 OVC
18:43 59.9 °F 57.0 °F 30.01 in Calm   2.3 mph 90 % 0.00 in 49.0 W/m2 OVC
18:48 59.9 °F 56.6 °F 30.01 in Calm   2.3 mph 89 % 0.00 in 35.0 W/m2 OVC
18:53 59.8 °F 56.9 °F 30.01 in Calm   2.3 mph 90 % 0.00 in 35.0 W/m2 OVC
18:58 59.8 °F 56.9 °F 30.02 in SE 0.1 mph 1.2 mph 90 % 0.00 in 51.0 W/m2 OVC
19:03 59.8 °F 56.9 °F 30.02 in Calm   1.2 mph 90 % 0.00 in 39.0 W/m2 OVC
19:08 59.8 °F 56.9 °F 30.02 in Calm   1.2 mph 90 % 0.00 in 26.0 W/m2 OVC
19:13 59.7 °F 56.8 °F 30.02 in Calm   1.2 mph 90 % 0.00 in 26.0 W/m2 OVC
19:19 59.8 °F 56.9 °F 30.02 in Calm   1.2 mph 90 % 0.00 in 18.0 W/m2 OVC
19:24 59.8 °F 56.9 °F 30.02 in Calm   1.2 mph 90 % 0.00 in 12.0 W/m2 OVC
19:29 59.7 °F 56.8 °F 30.02 in Calm   1.2 mph 90 % 0.00 in 12.0 W/m2 OVC
19:34 59.4 °F 56.5 °F 30.02 in ESE 0.1 mph 1.2 mph 90 % 0.00 in 12.0 W/m2 OVC
19:39 59.3 °F 56.4 °F 30.03 in Calm   1.2 mph 90 % 0.00 in 14.0 W/m2 OVC
19:44 59.3 °F 56.7 °F 30.03 in Calm   1.2 mph 91 % 0.00 in 14.0 W/m2 OVC
19:49 59.2 °F 56.6 °F 30.03 in Calm   1.2 mph 91 % 0.00 in 12.0 W/m2 OVC
19:54 59.1 °F 56.5 °F 30.03 in Calm   1.2 mph 91 % 0.00 in 12.0 W/m2 OVC
19:56 59.0 °F 56.4 °F 30.02 in Calm   1.2 mph 91 % 0.00 in 12.0 W/m2 OVC
20:01 58.9 °F 56.3 °F 30.03 in Calm   2.3 mph 91 % 0.00 in 12.0 W/m2 OVC
20:06 58.8 °F 56.2 °F 30.03 in Calm   2.3 mph 91 % 0.00 in 9.0 W/m2 OVC
20:11 58.8 °F 56.2 °F 30.03 in Calm   1.2 mph 91 % 0.00 in 5.0 W/m2 OVC
20:16 58.7 °F 56.1 °F 30.03 in Calm   2.3 mph 91 % 0.00 in 0.0 W/m2 OVC
20:21 58.7 °F 56.4 °F 30.03 in Calm   2.3 mph 92 % 0.00 in 0.0 W/m2 OVC
20:26 58.7 °F 56.4 °F 30.03 in Calm   1.2 mph 92 % 0.00 in 0.0 W/m2 OVC
20:31 58.7 °F 56.4 °F 30.03 in Calm   1.2 mph 92 % 0.00 in 0.0 W/m2 OVC
20:36 58.7 °F 56.4 °F 30.03 in Calm   1.2 mph 92 % 0.00 in 0.0 W/m2 OVC
20:41 58.7 °F 56.4 °F 30.03 in Calm     92 % 0.00 in 0.0 W/m2 OVC
20:46 58.6 °F 56.3 °F 30.03 in Calm     92 % 0.00 in 0.0 W/m2 OVC
20:51 58.7 °F 56.4 °F 30.03 in Calm     92 % 0.00 in 0.0 W/m2 OVC
20:56 58.7 °F 56.4 °F 30.03 in Calm     92 % 0.00 in 0.0 W/m2 OVC
21:01 58.6 °F 56.6 °F 30.03 in Calm     93 % 0.00 in 0.0 W/m2 OVC
21:06 58.6 °F 56.6 °F 30.04 in Calm     93 % 0.00 in 0.0 W/m2 OVC
21:11 58.5 °F 56.5 °F 30.04 in Calm   1.2 mph 93 % 0.00 in 0.0 W/m2 OVC
21:16 58.4 °F 56.1 °F 30.04 in Calm   1.2 mph 92 % 0.00 in 0.0 W/m2 OVC
21:21 58.3 °F 56.0 °F 30.04 in Calm   1.2 mph 92 % 0.00 in 0.0 W/m2 OVC
21:26 58.2 °F 56.2 °F 30.05 in Calm   1.2 mph 93 % 0.00 in 0.0 W/m2 OVC
21:31 58.1 °F 56.1 °F 30.05 in Calm   1.2 mph 93 % 0.00 in 0.0 W/m2 OVC
21:36 58.0 °F 56.0 °F 30.05 in Calm   1.2 mph 93 % 0.00 in 0.0 W/m2 OVC
21:41 57.9 °F 55.9 °F 30.05 in Calm   1.2 mph 93 % 0.00 in 0.0 W/m2 OVC
21:46 57.8 °F 55.8 °F 30.05 in Calm   1.2 mph 93 % 0.00 in 0.0 W/m2 OVC
21:51 57.8 °F 55.8 °F 30.06 in Calm   1.2 mph 93 % 0.00 in 0.0 W/m2 OVC
21:56 57.7 °F 55.7 °F 30.06 in Calm     93 % 0.00 in 0.0 W/m2 OVC
22:01 57.7 °F 55.7 °F 30.06 in Calm   1.2 mph 93 % 0.00 in 0.0 W/m2 OVC
22:06 57.5 °F 55.5 °F 30.07 in Calm   1.2 mph 93 % 0.00 in 0.0 W/m2 OVC
22:12 57.5 °F 55.5 °F 30.06 in Calm     93 % 0.00 in 0.0 W/m2 OVC
22:17 57.5 °F 55.5 °F 30.06 in Calm     93 % 0.00 in 0.0 W/m2 OVC
22:22 57.4 °F 55.4 °F 30.07 in Calm   1.2 mph 93 % 0.00 in 0.0 W/m2 OVC
22:27 57.4 °F 55.4 °F 30.07 in ESE 0.2 mph 1.2 mph 93 % 0.00 in 0.0 W/m2 OVC
22:32 57.3 °F 55.3 °F 30.07 in Calm   1.2 mph 93 % 0.00 in 0.0 W/m2 OVC
22:37 57.3 °F 55.3 °F 30.07 in Calm   1.2 mph 93 % 0.00 in 0.0 W/m2 OVC
22:42 57.3 °F 55.3 °F 30.06 in Calm   1.2 mph 93 % 0.00 in 0.0 W/m2 OVC
22:47 57.2 °F 55.2 °F 30.07 in East 0.1 mph 1.2 mph 93 % 0.00 in 0.0 W/m2 OVC
22:52 57.2 °F 55.2 °F 30.07 in Calm   1.2 mph 93 % 0.00 in 0.0 W/m2 OVC
22:57 57.2 °F 55.2 °F 30.07 in Calm   3.5 mph 93 % 0.00 in 0.0 W/m2 OVC
23:02 57.2 °F 55.2 °F 30.07 in Calm   3.5 mph 93 % 0.00 in 0.0 W/m2 OVC
23:07 57.2 °F 55.2 °F 30.07 in Calm     93 % 0.00 in 0.0 W/m2 OVC
23:12 57.1 °F 55.1 °F 30.07 in East 0.2 mph 1.2 mph 93 % 0.00 in 0.0 W/m2 OVC
23:17 57.0 °F 55.0 °F 30.07 in Calm   1.2 mph 93 % 0.00 in 0.0 W/m2 OVC
23:22 57.0 °F 55.0 °F 30.08 in Calm   1.2 mph 93 % 0.00 in 0.0 W/m2 OVC
23:27 57.0 °F 55.0 °F 30.08 in South 0.1 mph   93 % 0.00 in 0.0 W/m2 OVC
23:32 56.9 °F 54.6 °F 30.08 in Calm   1.2 mph 92 % 0.00 in 0.0 W/m2 OVC
23:37 57.0 °F 54.7 °F 30.09 in ESE 0.3 mph 1.2 mph 92 % 0.00 in 0.0 W/m2 OVC
23:42 56.9 °F 54.6 °F 30.09 in Calm   2.3 mph 92 % 0.00 in 0.0 W/m2 OVC
23:47 57.0 °F 54.7 °F 30.09 in Calm   2.3 mph 92 % 0.00 in 0.0 W/m2 OVC
23:52 57.1 °F 54.8 °F 30.09 in Calm   1.2 mph 92 % 0.00 in 0.0 W/m2 OVC
23:57 57.1 °F 54.8 °F 30.10 in Calm   1.2 mph 92 % 0.00 in 0.0 W/m2 OVC
Air Products Campus Weather
Compliments of Weather Underground - 3.5 mb